Croswell, Michigan
Current Conditions -  °F | °C
As of 10:00 AM on Thursday 18 Dec 2014 (Local Time) from CYZR Reporting Station
Overcast Overcast  
Wind Chill: 22°   Ceiling: 1900
Heat Index: 30°   Visibility: 9mi
Dew Point: 23°   Wind: 9mph
Humidity: 75%   Direction: 330°NNW
Pressure: 30.18"   Gusts: NA
Location:  43.28°N, 82.62°W
Report Text: CYZR 181500Z AUTO 33008KT 9SM OVC019 M01/M05 A3018 RMK SLP228
Loading
Personal Weather Stations






























Interactive Weather Map New forecast layout! Learn more

10-Day Weather Forecast

Advertisements
Track Severe Weather on mobile